Brook, Indiana
Current Conditions -  °F | °C
As of 6:55 AM on Thursday 27 Nov 2014 (Local Time) from KRZL Reporting Station
Haze Haze  
Wind Chill: 17°   Ceiling: 4700
Heat Index: 27°   Visibility: 5mi
Dew Point: 27°   Wind: 9mph
Humidity: 100%   Direction: 290°WNW
Pressure: 30.27"   Gusts: NA
Location:  40.87°N, 87.36°W
Report Text: KRZL 271255Z AUTO 29008KT 5SM BR OVC047 M03/M03 A3027 RMK AO2
Loading
Personal Weather Stations






























Interactive Weather Map New forecast layout! Learn more

10-Day Weather Forecast

Advertisements
Track Severe Weather on mobile